Lexington, KY (40517)

3:42 AM EDT on October 24, 2014 (GMT -0400)
Clearwater | Change Station
CLOSE
Current Station
Personal Weather Station
Location: Lexington, KY
Elevation: 922 ft
Nearby Weather Stations

Elev 922 ft 37.96 °N, 84.51 °W | Updated 3 minutes ago

Partly Cloudy
Partly Cloudy
40.2 °F
Feels Like 40 °F
N
0.0
Wind Variable Wind from NE
Gusts 0.0 mph

Today
High -- | Low -- °F
--% Chance of Precip.
Yesterday
High -- | Low -- °F
Precip. -- in
7:55 AM 6:48 PM
New Moon, 0% visible
Pressure 30.12 in
Visibility 7.0 miles
Clouds Clear
Windchill 40 °F
Dew Point 39 °F
Humidity 95%
Rainfall 0.00 in
Snow Depth Not available.
UV 0 out of 12
Pollen 1.30 out of 12
Air Quality Not available.
Flu Activity Sporadic
METAR KLEX 240654Z 00000KT 7SM CLR 08/06 A3012 RMK AO2 SLP198 T00780056

More Conditions Fewer Conditions

Pressure 30.12 in
Visibility 7.0 miles
Clouds Clear
Windchill 40 °F
Dew Point 39 °F
Humidity 95%
Rainfall 0.00 in
Snow Depth Not available.
UV 0 out of 12
Pollen 1.30 out of 12
Air Quality Not available.
Flu Activity Sporadic
METAR KLEX 240654Z 00000KT 7SM CLR 08/06 A3012 RMK AO2 SLP198 T00780056

More Conditions Fewer Conditions

10-Day Weather Forecast

Almanac

Astronomy

Oct. 24, 2014 Rise Set
Actual Time 7:55 AM EDT 6:48 PM EDT
Civil Twilight 7:28 AM EDT 7:15 PM EDT
Nautical Twilight 6:57 AM EDT 7:45 PM EDT
Astronomical Twilight 6:27 AM EDT 8:16 PM EDT
Moon 8:33 AM EDT 7:28 PM EDT
Length of Visible Light 11h 46m
Length of Day
10h 52m
Tomorrow will be 2m 16s shorter.
New Moon, 0% of the Moon is Illuminated
Today
New Moon
Oct 30
First Quarter
Nov 6
Full
Nov 14
Last Quarter
Nov 22
New

Today's Extremes

State Highs State Lows

Community

WunderPhotos

Upload Photos

1,764,512 photos uploaded!

WunderBlogs® & News

Nearby

Air Quality

  Air Quality AQ Index Pollutant
Yesterday Good
OZONE
Yesterday Good
PM2.5
Friday Good
OZONE

Snow Depth

Station Depth Elevation
No new snow has been reported.

Earthquake Activity

City Distance Mag. Time & Date
No recent earthquake activity has been reported nearby.
Minimum magnitude displayed is 2.5.

Coastal Water Temperatures

Place Temperature
No Stations Reporting

Nearby Weather Stations